Map

Track Data

SID SEASON NUMBER BASIN SUBBASIN NAME ISO_TIME NATURE LAT LON WMO_WIND WMO_PRES WMO_AGENCY TRACK_TYPE DIST2LAND LANDFALL IFLAG USA_AGENCY USA_ATCF_ID USA_LAT USA_LON USA_RECORD USA_STATUS USA_WIND USA_PRES USA_SSHS USA_R34_NE USA_R34_SE USA_R34_SW USA_R34_NW USA_R50_NE USA_R50_SE USA_R50_SW USA_R50_NW USA_R64_NE USA_R64_SE USA_R64_SW USA_R64_NW USA_POCI USA_ROCI USA_RMW USA_EYE TOKYO_LAT TOKYO_LON TOKYO_GRADE TOKYO_WIND TOKYO_PRES TOKYO_R50_DIR TOKYO_R50_LONG TOKYO_R50_SHORT TOKYO_R30_DIR TOKYO_R30_LONG TOKYO_R30_SHORT TOKYO_LAND CMA_LAT CMA_LON CMA_CAT CMA_WIND CMA_PRES HKO_LAT HKO_LON HKO_CAT HKO_WIND HKO_PRES NEWDELHI_LAT NEWDELHI_LON NEWDELHI_GRADE NEWDELHI_WIND NEWDELHI_PRES NEWDELHI_CI NEWDELHI_DP NEWDELHI_POCI REUNION_LAT REUNION_LON REUNION_TYPE REUNION_WIND REUNION_PRES REUNION_TNUM REUNION_CI REUNION_RMW REUNION_R34_NE REUNION_R34_SE REUNION_R34_SW REUNION_R34_NW REUNION_R50_NE REUNION_R50_SE REUNION_R50_SW REUNION_R50_NW REUNION_R64_NE REUNION_R64_SE REUNION_R64_SW REUNION_R64_NW BOM_LAT BOM_LON BOM_TYPE BOM_WIND BOM_PRES BOM_TNUM BOM_CI BOM_RMW BOM_R34_NE BOM_R34_SE BOM_R34_SW BOM_R34_NW BOM_R50_NE BOM_R50_SE BOM_R50_SW BOM_R50_NW BOM_R64_NE BOM_R64_SE BOM_R64_SW BOM_R64_NW BOM_ROCI BOM_POCI BOM_EYE BOM_POS_METHOD BOM_PRES_METHOD NADI_LAT NADI_LON NADI_CAT NADI_WIND NADI_PRES WELLINGTON_LAT WELLINGTON_LON WELLINGTON_WIND WELLINGTON_PRES DS824_LAT DS824_LON DS824_STAGE DS824_WIND DS824_PRES TD9636_LAT TD9636_LON TD9636_STAGE TD9636_WIND TD9636_PRES TD9635_LAT TD9635_LON TD9635_WIND TD9635_PRES TD9635_ROCI NEUMANN_LAT NEUMANN_LON NEUMANN_CLASS NEUMANN_WIND NEUMANN_PRES MLC_LAT MLC_LON MLC_CLASS MLC_WIND MLC_PRES USA_GUST BOM_GUST BOM_GUST_PER REUNION_GUST REUNION_GUST_PER USA_SEAHGT USA_SEARAD_NE USA_SEARAD_SE USA_SEARAD_SW USA_SEARAD_NW STORM_SPEED STORM_DIR
1860011S15436 1860 4 SI MM NOT_NAMED 1860-01-11 06:00:00 NR -15.3000 75.5000 spur-other 1954 1926 __________O___ -1 -15.3000 75.5000 7 7 224
1860011S15436 1860 4 SI MM NOT_NAMED 1860-01-11 09:00:00 NR -15.5378 75.2648 spur-other 1926 1885 __________P___ -1 -15.5378 75.2648 7 7 224
1860011S15436 1860 4 SI MM NOT_NAMED 1860-01-11 12:00:00 NR -15.7704 75.0334 spur-other 1885 1858 __________P___ -1 -15.7704 75.0334 7 6 224
1860011S15436 1860 4 SI MM NOT_NAMED 1860-01-11 15:00:00 NR -15.9928 74.8103 spur-other 1858 1831 __________P___ -1 -15.9928 74.8103 7 6 224
1860011S15436 1860 4 SI MM NOT_NAMED 1860-01-11 18:00:00 NR -16.2000 74.6000 spur-other 1831 1804 __________O___ -1 -16.2000 74.6000 7 6 224
1860011S15436 1860 4 SI MM NOT_NAMED 1860-01-11 21:00:00 NR -16.3922 74.4026 spur-other 1804 1777 __________P___ -1 -16.3922 74.4026 7 5 225
1860011S15436 1860 4 SI MM NOT_NAMED 1860-01-12 00:00:00 NR -16.5895 74.2012 spur-other 1777 1751 __________P___ -1 -16.5895 74.2012 7 6 224
1860011S15436 1860 4 SI MM NOT_NAMED 1860-01-12 03:00:00 NR -16.8171 73.9742 spur-other 1751 1711 __________P___ -1 -16.8171 73.9742 7 7 223
1860011S15436 1860 4 SI MM NOT_NAMED 1860-01-12 06:00:00 NR -17.1000 73.7000 spur-other 1711 1672 __________O___ -1 -17.1000 73.7000 7 9 223
1860011S15436 1860 4 SI MM NOT_NAMED 1860-01-12 09:00:00 NR -17.4718 73.3467 spur-other 1659 1618 __________P___ -1 -17.4718 73.3467 7 11 222
1860011S15436 1860 4 SI MM NOT_NAMED 1860-01-12 12:00:00 NR -17.8979 72.9456 spur-other 1608 1558 __________P___ -1 -17.8979 72.9456 7 12 222
1860011S15436 1860 4 SI MM NOT_NAMED 1860-01-12 15:00:00 NR -18.3499 72.5216 spur-other 1558 1507 __________P___ -1 -18.3499 72.5216 7 12 222
1860011S15436 1860 4 SI MM NOT_NAMED 1860-01-12 18:00:00 NR -18.8000 72.1000 spur-other 1507 1459 __________O___ -1 -18.8000 72.1000 7 12 222
1860011S15436 1860 4 SI MM NOT_NAMED 1860-01-12 21:00:00 NR -19.2479 71.6777 spur-other 1459 1411 __________P___ -1 -19.2479 71.6777 7 12 222
1860011S15436 1860 4 SI MM NOT_NAMED 1860-01-13 00:00:00 NR -19.6827 71.2684 spur-other 1411 1366 __________P___ -1 -19.6827 71.2684 7 11 221
1860011S15436 1860 4 SI MM NOT_NAMED 1860-01-13 03:00:00 NR -20.0761 70.8997 spur-other 1366 1334 __________P___ -1 -20.0761 70.8997 7 10 221
1860011S15436 1860 4 SI MM NOT_NAMED 1860-01-13 06:00:00 NR -20.4000 70.6000 spur-other 1334 1312 __________O___ -1 -20.4000 70.6000 7 7 221
1860011S15436 1860 4 SI MM NOT_NAMED 1860-01-13 09:00:00 NR -20.6254 70.3980 spur-other 1312 1302 __________P___ -1 -20.6254 70.3980 7 5 219
1860011S15436 1860 4 SI MM NOT_NAMED 1860-01-13 12:00:00 NR -20.7819 70.2662 spur-other 1302 1291 __________P___ -1 -20.7819 70.2662 7 3 217
1860011S15436 1860 4 SI MM NOT_NAMED 1860-01-13 15:00:00 NR -20.8975 70.1764 spur-other 1291 1281 __________P___ -1 -20.8975 70.1764 7 3 215
1860011S15436 1860 4 SI MM NOT_NAMED 1860-01-13 18:00:00 NR -21.0000 70.1000 spur-other 1281 1271 __________O___ -1 -21.0000 70.1000 7 3 215
1860011S15436 1860 4 SI MM NOT_NAMED 1860-01-13 21:00:00 NR -21.1121 70.0136 spur-other 1271 1261 __________P___ -1 -21.1121 70.0136 7 3 216
1860011S15436 1860 4 SI MM NOT_NAMED 1860-01-14 00:00:00 NR -21.2353 69.9156 spur-other 1261 1251 __________P___ -1 -21.2353 69.9156 7 3 217
1860011S15436 1860 4 SI MM NOT_NAMED 1860-01-14 03:00:00 NR -21.3658 69.8098 spur-other 1252 1242 __________P___ -1 -21.3658 69.8098 7 3 217
1860011S15436 1860 4 SI MM NOT_NAMED 1860-01-14 06:00:00 NR -21.5000 69.7000 spur-other 1242 __________O___ -1 -21.5000 69.7000 7 3 217

About IBTrACS Database

This database is a web-friendly format of International Best Track Archive for Climate Stewardship (IBTrACS), a global best track data archive curated by NOAA dating back to 1842.

Updated: 2021-12-06